sensor_id;sensor_type;location;lat;lon;timestamp;P1;durP1;ratioP1;P2;durP2;ratioP2
70942;SDS011;59154;51.970;5.650;2022-11-20T00:00:03;9.7;;;6.2;;
70942;SDS011;59154;51.970;5.650;2022-11-20T00:05:02;9.9;;;6.8;;
70942;SDS011;59154;51.970;5.650;2022-11-20T00:10:02;9.9;;;6.1;;
70942;SDS011;59154;51.970;5.650;2022-11-20T00:15:03;9.6;;;6.6;;
70942;SDS011;59154;51.970;5.650;2022-11-20T00:20:03;10.5;;;6.5;;
70942;SDS011;59154;51.970;5.650;2022-11-20T00:25:02;10.4;;;7.0;;
70942;SDS011;59154;51.970;5.650;2022-11-20T00:30:03;10.6;;;7.1;;
70942;SDS011;59154;51.970;5.650;2022-11-20T00:35:03;8.6;;;6.4;;
70942;SDS011;59154;51.970;5.650;2022-11-20T00:40:03;8.9;;;6.1;;
70942;SDS011;59154;51.970;5.650;2022-11-20T00:45:02;9.4;;;7.1;;
70942;SDS011;59154;51.970;5.650;2022-11-20T00:50:02;11.6;;;7.3;;
70942;SDS011;59154;51.970;5.650;2022-11-20T00:55:02;10.9;;;7.7;;
70942;SDS011;59154;51.970;5.650;2022-11-20T01:00:03;12.0;;;8.4;;
70942;SDS011;59154;51.970;5.650;2022-11-20T01:05:02;12.0;;;6.5;;
70942;SDS011;59154;51.970;5.650;2022-11-20T01:10:02;9.9;;;7.1;;
70942;SDS011;59154;51.970;5.650;2022-11-20T01:15:02;11.0;;;7.4;;
70942;SDS011;59154;51.970;5.650;2022-11-20T01:20:03;11.7;;;8.0;;
70942;SDS011;59154;51.970;5.650;2022-11-20T01:25:02;12.6;;;7.6;;
70942;SDS011;59154;51.970;5.650;2022-11-20T01:30:02;12.9;;;7.3;;
70942;SDS011;59154;51.970;5.650;2022-11-20T01:35:03;11.6;;;8.2;;
70942;SDS011;59154;51.970;5.650;2022-11-20T01:40:03;11.9;;;8.0;;
70942;SDS011;59154;51.970;5.650;2022-11-20T01:45:42;11.1;;;7.4;;
70942;SDS011;59154;51.970;5.650;2022-11-20T01:50:04;10.5;;;6.9;;
70942;SDS011;59154;51.970;5.650;2022-11-20T01:55:04;8.8;;;6.3;;
70942;SDS011;59154;51.970;5.650;2022-11-20T02:00:04;11.2;;;6.6;;
70942;SDS011;59154;51.970;5.650;2022-11-20T02:05:04;11.4;;;7.2;;
70942;SDS011;59154;51.970;5.650;2022-11-20T02:10:03;8.5;;;6.1;;
70942;SDS011;59154;51.970;5.650;2022-11-20T02:15:02;9.1;;;6.6;;
70942;SDS011;59154;51.970;5.650;2022-11-20T02:20:04;11.3;;;6.9;;
70942;SDS011;59154;51.970;5.650;2022-11-20T02:25:03;13.7;;;8.7;;
70942;SDS011;59154;51.970;5.650;2022-11-20T02:30:03;13.0;;;8.3;;
70942;SDS011;59154;51.970;5.650;2022-11-20T02:35:06;12.2;;;8.3;;
70942;SDS011;59154;51.970;5.650;2022-11-20T02:40:03;12.3;;;8.0;;
70942;SDS011;59154;51.970;5.650;2022-11-20T02:45:03;14.9;;;8.3;;
70942;SDS011;59154;51.970;5.650;2022-11-20T02:50:03;10.6;;;7.9;;
70942;SDS011;59154;51.970;5.650;2022-11-20T02:55:03;11.2;;;6.7;;
70942;SDS011;59154;51.970;5.650;2022-11-20T03:00:03;11.3;;;7.8;;
70942;SDS011;59154;51.970;5.650;2022-11-20T03:05:03;10.6;;;7.3;;
70942;SDS011;59154;51.970;5.650;2022-11-20T03:10:02;11.6;;;8.0;;
70942;SDS011;59154;51.970;5.650;2022-11-20T03:15:02;10.3;;;7.0;;
70942;SDS011;59154;51.970;5.650;2022-11-20T03:20:03;11.3;;;7.7;;
70942;SDS011;59154;51.970;5.650;2022-11-20T03:25:02;12.8;;;8.5;;
70942;SDS011;59154;51.970;5.650;2022-11-20T03:30:03;12.5;;;8.8;;
70942;SDS011;59154;51.970;5.650;2022-11-20T03:35:02;14.8;;;9.8;;
70942;SDS011;59154;51.970;5.650;2022-11-20T03:40:03;12.4;;;8.5;;
70942;SDS011;59154;51.970;5.650;2022-11-20T03:45:03;11.9;;;9.0;;
70942;SDS011;59154;51.970;5.650;2022-11-20T03:50:03;14.2;;;9.0;;
70942;SDS011;59154;51.970;5.650;2022-11-20T03:55:03;14.5;;;8.5;;
70942;SDS011;59154;51.970;5.650;2022-11-20T04:00:03;13.4;;;9.4;;
70942;SDS011;59154;51.970;5.650;2022-11-20T04:05:03;13.0;;;8.6;;
70942;SDS011;59154;51.970;5.650;2022-11-20T04:10:03;13.3;;;8.8;;
70942;SDS011;59154;51.970;5.650;2022-11-20T04:15:02;12.7;;;9.0;;
70942;SDS011;59154;51.970;5.650;2022-11-20T04:20:03;14.3;;;9.6;;
70942;SDS011;59154;51.970;5.650;2022-11-20T04:25:02;12.9;;;9.0;;
70942;SDS011;59154;51.970;5.650;2022-11-20T04:30:02;14.3;;;8.9;;
70942;SDS011;59154;51.970;5.650;2022-11-20T04:35:02;14.6;;;8.1;;
70942;SDS011;59154;51.970;5.650;2022-11-20T04:40:03;14.7;;;9.1;;
70942;SDS011;59154;51.970;5.650;2022-11-20T04:45:02;12.1;;;8.8;;
70942;SDS011;59154;51.970;5.650;2022-11-20T04:50:03;12.7;;;7.9;;
70942;SDS011;59154;51.970;5.650;2022-11-20T04:55:02;13.9;;;8.4;;
70942;SDS011;59154;51.970;5.650;2022-11-20T05:00:04;14.1;;;8.4;;
70942;SDS011;59154;51.970;5.650;2022-11-20T05:05:02;12.2;;;8.1;;
70942;SDS011;59154;51.970;5.650;2022-11-20T05:10:03;13.1;;;8.9;;
70942;SDS011;59154;51.970;5.650;2022-11-20T05:15:02;11.6;;;7.4;;
70942;SDS011;59154;51.970;5.650;2022-11-20T05:20:02;10.1;;;7.8;;
70942;SDS011;59154;51.970;5.650;2022-11-20T05:25:03;10.6;;;7.1;;
70942;SDS011;59154;51.970;5.650;2022-11-20T05:30:02;13.8;;;8.7;;
70942;SDS011;59154;51.970;5.650;2022-11-20T05:35:03;12.2;;;7.3;;
70942;SDS011;59154;51.970;5.650;2022-11-20T05:40:03;11.2;;;7.4;;
70942;SDS011;59154;51.970;5.650;2022-11-20T05:45:02;11.9;;;7.5;;
70942;SDS011;59154;51.970;5.650;2022-11-20T05:50:03;11.0;;;7.8;;
70942;SDS011;59154;51.970;5.650;2022-11-20T05:55:02;10.1;;;7.4;;
70942;SDS011;59154;51.970;5.650;2022-11-20T06:00:03;11.4;;;7.8;;
70942;SDS011;59154;51.970;5.650;2022-11-20T06:05:02;9.4;;;6.6;;
70942;SDS011;59154;51.970;5.650;2022-11-20T06:10:02;10.8;;;7.6;;
70942;SDS011;59154;51.970;5.650;2022-11-20T06:15:02;10.6;;;7.8;;
70942;SDS011;59154;51.970;5.650;2022-11-20T06:20:03;12.7;;;8.0;;
70942;SDS011;59154;51.970;5.650;2022-11-20T06:25:02;10.9;;;7.9;;
70942;SDS011;59154;51.970;5.650;2022-11-20T06:30:03;11.5;;;8.0;;
70942;SDS011;59154;51.970;5.650;2022-11-20T06:35:02;11.3;;;8.0;;
70942;SDS011;59154;51.970;5.650;2022-11-20T06:40:03;11.9;;;7.5;;
70942;SDS011;59154;51.970;5.650;2022-11-20T06:45:03;10.3;;;7.0;;
70942;SDS011;59154;51.970;5.650;2022-11-20T06:50:03;11.6;;;8.0;;
70942;SDS011;59154;51.970;5.650;2022-11-20T06:55:02;10.7;;;8.2;;
70942;SDS011;59154;51.970;5.650;2022-11-20T07:00:03;12.7;;;7.7;;
70942;SDS011;59154;51.970;5.650;2022-11-20T07:05:02;12.4;;;8.6;;
70942;SDS011;59154;51.970;5.650;2022-11-20T07:10:02;12.1;;;7.5;;
70942;SDS011;59154;51.970;5.650;2022-11-20T07:15:02;10.9;;;7.2;;
70942;SDS011;59154;51.970;5.650;2022-11-20T07:20:03;11.7;;;8.3;;
70942;SDS011;59154;51.970;5.650;2022-11-20T07:25:02;14.3;;;8.0;;
70942;SDS011;59154;51.970;5.650;2022-11-20T07:30:03;13.6;;;8.2;;
70942;SDS011;59154;51.970;5.650;2022-11-20T07:35:02;12.8;;;8.5;;
70942;SDS011;59154;51.970;5.650;2022-11-20T07:40:03;13.9;;;9.0;;
70942;SDS011;59154;51.970;5.650;2022-11-20T07:45:02;14.1;;;9.3;;
70942;SDS011;59154;51.970;5.650;2022-11-20T07:50:03;13.4;;;9.8;;
70942;SDS011;59154;51.970;5.650;2022-11-20T07:55:02;14.4;;;9.3;;
70942;SDS011;59154;51.970;5.650;2022-11-20T08:00:03;12.8;;;9.6;;
70942;SDS011;59154;51.970;5.650;2022-11-20T08:05:02;14.6;;;10.1;;
70942;SDS011;59154;51.970;5.650;2022-11-20T08:10:02;15.1;;;9.5;;
70942;SDS011;59154;51.970;5.650;2022-11-20T08:15:02;15.6;;;10.4;;
70942;SDS011;59154;51.970;5.650;2022-11-20T08:20:02;15.2;;;10.2;;
70942;SDS011;59154;51.970;5.650;2022-11-20T08:25:02;17.9;;;11.1;;
70942;SDS011;59154;51.970;5.650;2022-11-20T08:30:03;16.4;;;11.3;;
70942;SDS011;59154;51.970;5.650;2022-11-20T08:35:02;13.6;;;9.5;;
70942;SDS011;59154;51.970;5.650;2022-11-20T08:40:04;13.5;;;10.1;;
70942;SDS011;59154;51.970;5.650;2022-11-20T08:45:02;14.8;;;10.3;;
70942;SDS011;59154;51.970;5.650;2022-11-20T08:50:03;14.9;;;10.8;;
70942;SDS011;59154;51.970;5.650;2022-11-20T08:55:03;13.7;;;10.0;;
70942;SDS011;59154;51.970;5.650;2022-11-20T09:00:03;14.1;;;9.9;;
70942;SDS011;59154;51.970;5.650;2022-11-20T09:05:02;16.3;;;10.5;;
70942;SDS011;59154;51.970;5.650;2022-11-20T09:10:03;14.5;;;10.0;;
70942;SDS011;59154;51.970;5.650;2022-11-20T09:15:02;14.6;;;10.6;;
70942;SDS011;59154;51.970;5.650;2022-11-20T09:20:03;16.1;;;11.0;;
70942;SDS011;59154;51.970;5.650;2022-11-20T09:25:03;15.9;;;10.7;;
70942;SDS011;59154;51.970;5.650;2022-11-20T09:30:03;17.2;;;10.3;;
70942;SDS011;59154;51.970;5.650;2022-11-20T09:35:02;14.1;;;10.1;;
70942;SDS011;59154;51.970;5.650;2022-11-20T09:40:03;15.3;;;10.3;;
70942;SDS011;59154;51.970;5.650;2022-11-20T09:45:13;15.7;;;10.8;;
70942;SDS011;59154;51.970;5.650;2022-11-20T09:50:07;14.5;;;10.9;;
70942;SDS011;59154;51.970;5.650;2022-11-20T09:55:02;15.5;;;10.8;;
70942;SDS011;59154;51.970;5.650;2022-11-20T10:00:04;16.9;;;11.0;;
70942;SDS011;59154;51.970;5.650;2022-11-20T10:05:04;15.3;;;10.5;;
70942;SDS011;59154;51.970;5.650;2022-11-20T10:10:03;14.8;;;10.9;;
70942;SDS011;59154;51.970;5.650;2022-11-20T10:15:05;16.7;;;11.2;;
70942;SDS011;59154;51.970;5.650;2022-11-20T10:20:10;17.9;;;11.9;;
70942;SDS011;59154;51.970;5.650;2022-11-20T10:25:03;16.0;;;11.4;;
70942;SDS011;59154;51.970;5.650;2022-11-20T10:30:03;14.8;;;11.2;;
70942;SDS011;59154;51.970;5.650;2022-11-20T10:35:04;15.0;;;10.7;;
70942;SDS011;59154;51.970;5.650;2022-11-20T10:40:04;15.7;;;11.2;;
70942;SDS011;59154;51.970;5.650;2022-11-20T10:45:09;17.1;;;11.9;;
70942;SDS011;59154;51.970;5.650;2022-11-20T10:50:03;18.9;;;12.6;;
70942;SDS011;59154;51.970;5.650;2022-11-20T10:55:06;21.3;;;12.4;;
70942;SDS011;59154;51.970;5.650;2022-11-20T11:00:04;18.6;;;13.0;;
70942;SDS011;59154;51.970;5.650;2022-11-20T11:05:06;16.6;;;12.5;;
70942;SDS011;59154;51.970;5.650;2022-11-20T11:10:05;17.6;;;12.2;;
70942;SDS011;59154;51.970;5.650;2022-11-20T11:15:03;17.2;;;11.6;;
70942;SDS011;59154;51.970;5.650;2022-11-20T11:20:04;17.1;;;12.3;;
70942;SDS011;59154;51.970;5.650;2022-11-20T11:25:02;18.0;;;12.3;;
70942;SDS011;59154;51.970;5.650;2022-11-20T11:30:11;16.5;;;12.3;;
70942;SDS011;59154;51.970;5.650;2022-11-20T11:35:03;16.1;;;11.6;;
70942;SDS011;59154;51.970;5.650;2022-11-20T11:40:04;15.5;;;11.7;;
70942;SDS011;59154;51.970;5.650;2022-11-20T11:45:05;19.8;;;12.0;;
70942;SDS011;59154;51.970;5.650;2022-11-20T11:50:19;17.1;;;11.8;;
70942;SDS011;59154;51.970;5.650;2022-11-20T11:55:02;19.0;;;13.1;;
70942;SDS011;59154;51.970;5.650;2022-11-20T12:00:03;19.6;;;13.2;;
70942;SDS011;59154;51.970;5.650;2022-11-20T12:05:05;14.8;;;11.4;;
70942;SDS011;59154;51.970;5.650;2022-11-20T12:10:03;16.6;;;12.1;;
70942;SDS011;59154;51.970;5.650;2022-11-20T12:15:02;18.9;;;11.8;;
70942;SDS011;59154;51.970;5.650;2022-11-20T12:20:05;20.3;;;12.3;;
70942;SDS011;59154;51.970;5.650;2022-11-20T12:25:03;16.6;;;12.4;;
70942;SDS011;59154;51.970;5.650;2022-11-20T12:30:06;17.2;;;11.8;;
70942;SDS011;59154;51.970;5.650;2022-11-20T12:35:04;16.8;;;12.0;;
70942;SDS011;59154;51.970;5.650;2022-11-20T12:40:06;14.8;;;11.3;;
70942;SDS011;59154;51.970;5.650;2022-11-20T12:45:05;18.2;;;11.8;;
70942;SDS011;59154;51.970;5.650;2022-11-20T12:50:04;15.8;;;11.4;;
70942;SDS011;59154;51.970;5.650;2022-11-20T12:55:07;20.5;;;13.0;;
70942;SDS011;59154;51.970;5.650;2022-11-20T13:00:08;15.6;;;11.1;;
70942;SDS011;59154;51.970;5.650;2022-11-20T13:05:05;14.3;;;10.5;;
70942;SDS011;59154;51.970;5.650;2022-11-20T13:10:03;17.5;;;12.4;;
70942;SDS011;59154;51.970;5.650;2022-11-20T13:15:05;16.3;;;12.0;;
70942;SDS011;59154;51.970;5.650;2022-11-20T13:20:05;19.2;;;12.0;;
70942;SDS011;59154;51.970;5.650;2022-11-20T13:25:02;20.6;;;11.8;;
70942;SDS011;59154;51.970;5.650;2022-11-20T13:30:11;16.9;;;12.4;;
70942;SDS011;59154;51.970;5.650;2022-11-20T13:35:04;19.2;;;13.1;;
70942;SDS011;59154;51.970;5.650;2022-11-20T13:40:23;18.7;;;12.5;;
70942;SDS011;59154;51.970;5.650;2022-11-20T13:45:02;20.3;;;12.3;;
70942;SDS011;59154;51.970;5.650;2022-11-20T13:50:03;17.3;;;11.7;;
70942;SDS011;59154;51.970;5.650;2022-11-20T13:55:05;20.9;;;12.7;;
70942;SDS011;59154;51.970;5.650;2022-11-20T14:00:07;15.7;;;11.7;;
70942;SDS011;59154;51.970;5.650;2022-11-20T14:05:02;18.9;;;13.1;;
70942;SDS011;59154;51.970;5.650;2022-11-20T14:10:03;16.1;;;12.2;;
70942;SDS011;59154;51.970;5.650;2022-11-20T14:15:02;18.5;;;12.2;;
70942;SDS011;59154;51.970;5.650;2022-11-20T14:20:03;17.3;;;11.8;;
70942;SDS011;59154;51.970;5.650;2022-11-20T14:25:04;17.7;;;12.0;;
70942;SDS011;59154;51.970;5.650;2022-11-20T14:30:02;19.0;;;14.0;;
70942;SDS011;59154;51.970;5.650;2022-11-20T14:35:06;16.2;;;12.4;;
70942;SDS011;59154;51.970;5.650;2022-11-20T14:40:05;17.2;;;12.0;;
70942;SDS011;59154;51.970;5.650;2022-11-20T14:45:02;20.0;;;12.9;;
70942;SDS011;59154;51.970;5.650;2022-11-20T14:50:03;18.7;;;14.0;;
70942;SDS011;59154;51.970;5.650;2022-11-20T14:55:02;20.3;;;13.8;;
70942;SDS011;59154;51.970;5.650;2022-11-20T15:00:04;25.5;;;14.3;;
70942;SDS011;59154;51.970;5.650;2022-11-20T15:05:02;21.2;;;14.1;;
70942;SDS011;59154;51.970;5.650;2022-11-20T15:10:04;22.5;;;14.4;;
70942;SDS011;59154;51.970;5.650;2022-11-20T15:15:03;23.2;;;14.6;;
70942;SDS011;59154;51.970;5.650;2022-11-20T15:20:03;25.5;;;15.0;;
70942;SDS011;59154;51.970;5.650;2022-11-20T15:25:05;20.6;;;15.4;;
70942;SDS011;59154;51.970;5.650;2022-11-20T15:30:04;20.5;;;14.8;;
70942;SDS011;59154;51.970;5.650;2022-11-20T15:35:02;22.8;;;14.2;;
70942;SDS011;59154;51.970;5.650;2022-11-20T15:40:03;21.5;;;14.9;;
70942;SDS011;59154;51.970;5.650;2022-11-20T15:45:03;22.4;;;14.5;;
70942;SDS011;59154;51.970;5.650;2022-11-20T15:50:02;23.4;;;14.5;;
70942;SDS011;59154;51.970;5.650;2022-11-20T15:55:04;22.7;;;14.9;;
70942;SDS011;59154;51.970;5.650;2022-11-20T16:00:03;21.5;;;13.7;;
70942;SDS011;59154;51.970;5.650;2022-11-20T16:05:02;23.2;;;13.5;;
70942;SDS011;59154;51.970;5.650;2022-11-20T16:10:02;22.0;;;14.2;;
70942;SDS011;59154;51.970;5.650;2022-11-20T16:15:02;24.0;;;13.8;;
70942;SDS011;59154;51.970;5.650;2022-11-20T16:20:03;25.0;;;13.9;;
70942;SDS011;59154;51.970;5.650;2022-11-20T16:25:02;21.8;;;13.8;;
70942;SDS011;59154;51.970;5.650;2022-11-20T16:30:02;20.9;;;13.4;;
70942;SDS011;59154;51.970;5.650;2022-11-20T16:35:02;20.3;;;12.8;;
70942;SDS011;59154;51.970;5.650;2022-11-20T16:40:03;22.6;;;14.3;;
70942;SDS011;59154;51.970;5.650;2022-11-20T16:45:02;22.3;;;14.5;;
70942;SDS011;59154;51.970;5.650;2022-11-20T16:50:03;20.4;;;14.5;;
70942;SDS011;59154;51.970;5.650;2022-11-20T16:55:03;18.1;;;13.0;;
70942;SDS011;59154;51.970;5.650;2022-11-20T17:00:03;19.7;;;13.6;;
70942;SDS011;59154;51.970;5.650;2022-11-20T17:05:02;18.3;;;13.6;;
70942;SDS011;59154;51.970;5.650;2022-11-20T17:10:03;20.6;;;13.7;;
70942;SDS011;59154;51.970;5.650;2022-11-20T17:15:02;18.4;;;14.2;;
70942;SDS011;59154;51.970;5.650;2022-11-20T17:20:03;20.8;;;13.7;;
70942;SDS011;59154;51.970;5.650;2022-11-20T17:25:02;21.6;;;14.4;;
70942;SDS011;59154;51.970;5.650;2022-11-20T17:30:02;17.9;;;12.3;;
70942;SDS011;59154;51.970;5.650;2022-11-20T17:35:03;19.4;;;12.9;;
70942;SDS011;59154;51.970;5.650;2022-11-20T17:40:03;15.2;;;11.5;;
70942;SDS011;59154;51.970;5.650;2022-11-20T17:45:03;17.6;;;11.8;;
70942;SDS011;59154;51.970;5.650;2022-11-20T17:50:02;18.8;;;12.6;;
70942;SDS011;59154;51.970;5.650;2022-11-20T17:55:02;17.3;;;12.1;;
70942;SDS011;59154;51.970;5.650;2022-11-20T18:00:04;16.7;;;12.3;;
70942;SDS011;59154;51.970;5.650;2022-11-20T18:05:02;18.6;;;12.3;;
70942;SDS011;59154;51.970;5.650;2022-11-20T18:10:03;16.6;;;11.6;;
70942;SDS011;59154;51.970;5.650;2022-11-20T18:15:02;16.1;;;11.6;;
70942;SDS011;59154;51.970;5.650;2022-11-20T18:20:04;21.4;;;12.1;;
70942;SDS011;59154;51.970;5.650;2022-11-20T18:25:02;18.5;;;12.0;;
70942;SDS011;59154;51.970;5.650;2022-11-20T18:30:02;18.1;;;11.4;;
70942;SDS011;59154;51.970;5.650;2022-11-20T18:35:03;17.2;;;11.1;;
70942;SDS011;59154;51.970;5.650;2022-11-20T18:40:03;18.3;;;12.2;;
70942;SDS011;59154;51.970;5.650;2022-11-20T18:45:02;16.0;;;11.9;;
70942;SDS011;59154;51.970;5.650;2022-11-20T18:50:03;18.5;;;12.7;;
70942;SDS011;59154;51.970;5.650;2022-11-20T18:55:02;18.9;;;12.6;;
70942;SDS011;59154;51.970;5.650;2022-11-20T19:00:03;16.6;;;12.8;;
70942;SDS011;59154;51.970;5.650;2022-11-20T19:05:02;16.3;;;11.8;;
70942;SDS011;59154;51.970;5.650;2022-11-20T19:10:02;18.2;;;11.3;;
70942;SDS011;59154;51.970;5.650;2022-11-20T19:15:02;17.8;;;12.5;;
70942;SDS011;59154;51.970;5.650;2022-11-20T19:20:03;17.0;;;12.5;;
70942;SDS011;59154;51.970;5.650;2022-11-20T19:25:02;17.8;;;12.1;;
70942;SDS011;59154;51.970;5.650;2022-11-20T19:30:03;15.9;;;12.3;;
70942;SDS011;59154;51.970;5.650;2022-11-20T19:35:03;15.1;;;11.3;;
70942;SDS011;59154;51.970;5.650;2022-11-20T19:40:03;16.0;;;11.4;;
70942;SDS011;59154;51.970;5.650;2022-11-20T19:45:03;15.9;;;11.3;;
70942;SDS011;59154;51.970;5.650;2022-11-20T19:50:02;14.8;;;11.2;;
70942;SDS011;59154;51.970;5.650;2022-11-20T19:55:03;16.2;;;11.7;;
70942;SDS011;59154;51.970;5.650;2022-11-20T20:00:03;15.2;;;11.1;;
70942;SDS011;59154;51.970;5.650;2022-11-20T20:05:02;15.0;;;10.2;;
70942;SDS011;59154;51.970;5.650;2022-11-20T20:10:03;16.0;;;10.8;;
70942;SDS011;59154;51.970;5.650;2022-11-20T20:15:02;15.8;;;11.5;;
70942;SDS011;59154;51.970;5.650;2022-11-20T20:20:03;16.4;;;12.0;;
70942;SDS011;59154;51.970;5.650;2022-11-20T20:25:02;14.6;;;10.9;;
70942;SDS011;59154;51.970;5.650;2022-11-20T20:30:03;16.7;;;11.7;;
70942;SDS011;59154;51.970;5.650;2022-11-20T20:35:03;17.0;;;12.2;;
70942;SDS011;59154;51.970;5.650;2022-11-20T20:40:03;17.3;;;12.1;;
70942;SDS011;59154;51.970;5.650;2022-11-20T20:45:02;16.7;;;11.9;;
70942;SDS011;59154;51.970;5.650;2022-11-20T20:50:03;17.6;;;13.0;;
70942;SDS011;59154;51.970;5.650;2022-11-20T20:55:02;18.7;;;12.8;;
70942;SDS011;59154;51.970;5.650;2022-11-20T21:00:02;20.5;;;13.8;;
70942;SDS011;59154;51.970;5.650;2022-11-20T21:05:03;21.1;;;13.7;;
70942;SDS011;59154;51.970;5.650;2022-11-20T21:10:03;18.4;;;13.4;;
70942;SDS011;59154;51.970;5.650;2022-11-20T21:15:02;16.4;;;12.4;;
70942;SDS011;59154;51.970;5.650;2022-11-20T21:20:03;21.0;;;14.6;;
70942;SDS011;59154;51.970;5.650;2022-11-20T21:25:02;19.4;;;13.9;;
70942;SDS011;59154;51.970;5.650;2022-11-20T21:30:03;21.7;;;14.2;;
70942;SDS011;59154;51.970;5.650;2022-11-20T21:35:02;20.5;;;13.8;;
70942;SDS011;59154;51.970;5.650;2022-11-20T21:40:02;21.6;;;13.5;;
70942;SDS011;59154;51.970;5.650;2022-11-20T21:45:02;18.6;;;13.9;;
70942;SDS011;59154;51.970;5.650;2022-11-20T21:50:02;21.1;;;14.0;;
70942;SDS011;59154;51.970;5.650;2022-11-20T21:55:02;22.4;;;14.4;;
70942;SDS011;59154;51.970;5.650;2022-11-20T22:00:03;20.5;;;14.1;;
70942;SDS011;59154;51.970;5.650;2022-11-20T22:05:02;18.8;;;13.9;;
70942;SDS011;59154;51.970;5.650;2022-11-20T22:10:02;20.7;;;15.0;;
70942;SDS011;59154;51.970;5.650;2022-11-20T22:15:03;18.4;;;13.3;;
70942;SDS011;59154;51.970;5.650;2022-11-20T22:20:03;20.8;;;14.2;;
70942;SDS011;59154;51.970;5.650;2022-11-20T22:25:02;21.9;;;14.3;;
70942;SDS011;59154;51.970;5.650;2022-11-20T22:30:02;21.6;;;14.2;;
70942;SDS011;59154;51.970;5.650;2022-11-20T22:35:03;22.0;;;14.1;;
70942;SDS011;59154;51.970;5.650;2022-11-20T22:40:03;21.4;;;14.7;;
70942;SDS011;59154;51.970;5.650;2022-11-20T22:45:02;24.1;;;16.2;;
70942;SDS011;59154;51.970;5.650;2022-11-20T22:50:02;23.1;;;15.2;;
70942;SDS011;59154;51.970;5.650;2022-11-20T22:55:02;24.0;;;16.2;;
70942;SDS011;59154;51.970;5.650;2022-11-20T23:00:03;22.8;;;14.8;;
70942;SDS011;59154;51.970;5.650;2022-11-20T23:05:03;26.0;;;16.6;;
70942;SDS011;59154;51.970;5.650;2022-11-20T23:10:03;26.6;;;17.1;;
70942;SDS011;59154;51.970;5.650;2022-11-20T23:15:02;23.1;;;14.7;;
70942;SDS011;59154;51.970;5.650;2022-11-20T23:20:02;22.7;;;15.6;;
70942;SDS011;59154;51.970;5.650;2022-11-20T23:25:02;25.1;;;17.3;;
70942;SDS011;59154;51.970;5.650;2022-11-20T23:30:03;24.9;;;17.2;;
70942;SDS011;59154;51.970;5.650;2022-11-20T23:35:02;25.5;;;16.5;;
70942;SDS011;59154;51.970;5.650;2022-11-20T23:40:03;27.3;;;16.8;;
70942;SDS011;59154;51.970;5.650;2022-11-20T23:45:02;24.7;;;16.5;;
70942;SDS011;59154;51.970;5.650;2022-11-20T23:50:03;24.4;;;15.8;;
70942;SDS011;59154;51.970;5.650;2022-11-20T23:55:02;24.2;;;15.7;;
